createdAt,value
2022-11-18T00:00:37.855Z,12.10
2022-11-18T00:03:06.988Z,14.57
2022-11-18T00:05:36.735Z,12.03
2022-11-18T00:08:06.490Z,14.70
2022-11-18T00:10:35.868Z,12.90
2022-11-18T00:13:22.784Z,14.93
2022-11-18T00:16:02.605Z,13.63
2022-11-18T00:18:32.011Z,14.23
2022-11-18T00:21:04.203Z,18.10
2022-11-18T00:23:33.580Z,15.00
2022-11-18T00:26:06.655Z,16.37
2022-11-18T00:28:37.596Z,13.97
2022-11-18T00:31:11.752Z,16.57
2022-11-18T00:33:41.616Z,14.03
2022-11-18T00:36:12.827Z,14.90
2022-11-18T00:38:42.599Z,15.03
2022-11-18T00:41:13.720Z,17.50
2022-11-18T00:43:43.051Z,20.00
2022-11-18T00:46:14.090Z,13.77
2022-11-18T00:48:43.503Z,14.77
2022-11-18T00:51:16.070Z,16.23
2022-11-18T00:53:45.989Z,17.43
2022-11-18T00:56:15.295Z,16.40
2022-11-18T00:58:45.004Z,15.70
2022-11-18T01:01:16.199Z,12.63
2022-11-18T01:03:45.883Z,17.47
2022-11-18T01:06:15.203Z,13.80
2022-11-18T01:08:44.643Z,14.83
2022-11-18T01:11:30.823Z,14.03
2022-11-18T01:14:00.158Z,13.83
2022-11-18T01:16:31.491Z,14.23
2022-11-18T01:19:00.477Z,16.00
2022-11-18T01:21:31.124Z,15.27
2022-11-18T01:24:19.011Z,17.03
2022-11-18T01:26:48.178Z,15.27
2022-11-18T01:29:17.754Z,14.63
2022-11-18T01:32:16.860Z,13.17
2022-11-18T01:34:37.965Z,14.93
2022-11-18T01:37:07.182Z,17.43
2022-11-18T01:39:36.498Z,17.33
2022-11-18T01:42:06.138Z,16.40
2022-11-18T01:44:59.311Z,16.43
2022-11-18T01:47:35.039Z,15.33
2022-11-18T01:50:05.193Z,16.30
2022-11-18T01:52:35.814Z,16.97
2022-11-18T01:55:11.750Z,17.10
2022-11-18T01:57:41.351Z,15.23
2022-11-18T02:00:11.579Z,17.10
2022-11-18T02:02:42.373Z,16.23
2022-11-18T02:05:14.043Z,14.53
2022-11-18T02:07:44.841Z,18.07
2022-11-18T02:10:22.259Z,17.33
2022-11-18T02:12:52.971Z,15.70
2022-11-18T02:15:28.984Z,17.33
2022-11-18T02:18:07.812Z,18.70
2022-11-18T02:20:39.277Z,15.27
2022-11-18T02:23:40.823Z,15.37
2022-11-18T02:26:51.521Z,17.23
2022-11-18T02:29:26.230Z,14.80
2022-11-18T02:32:01.218Z,13.70
2022-11-18T02:34:42.370Z,15.33
2022-11-18T02:37:19.836Z,17.77
2022-11-18T02:39:56.559Z,16.47
2022-11-18T02:42:28.911Z,15.57
2022-11-18T02:45:04.641Z,15.97
2022-11-18T02:47:37.591Z,21.97
2022-11-18T02:50:10.104Z,20.70
2022-11-18T02:52:42.094Z,16.20
2022-11-18T02:55:14.297Z,16.73
2022-11-18T02:57:45.885Z,16.50
2022-11-18T03:00:19.410Z,15.37
2022-11-18T03:02:51.465Z,15.90
2022-11-18T03:05:25.399Z,14.43
2022-11-18T03:08:00.580Z,17.73
2022-11-18T03:10:37.621Z,15.73
2022-11-18T03:13:12.962Z,14.67
2022-11-18T03:15:51.061Z,13.70
2022-11-18T03:18:28.905Z,15.97
2022-11-18T03:21:03.662Z,14.27
2022-11-18T03:23:38.408Z,13.67
2022-11-18T03:26:11.768Z,17.33
2022-11-18T03:28:46.356Z,17.37
2022-11-18T03:31:23.766Z,16.13
2022-11-18T03:33:56.789Z,18.20
2022-11-18T03:36:29.814Z,14.10
2022-11-18T03:39:02.552Z,16.93
2022-11-18T03:41:37.501Z,18.43
2022-11-18T03:44:12.040Z,17.10
2022-11-18T03:46:47.624Z,20.00
2022-11-18T03:49:22.723Z,18.87
2022-11-18T03:51:56.982Z,17.73
2022-11-18T03:54:30.108Z,17.57
2022-11-18T03:57:02.195Z,17.93
2022-11-18T03:59:36.168Z,19.00
2022-11-18T04:02:13.520Z,19.10
2022-11-18T04:04:43.751Z,23.53
2022-11-18T04:07:21.387Z,26.00
2022-11-18T04:09:59.872Z,20.77
2022-11-18T04:12:34.013Z,22.17
2022-11-18T04:15:03.664Z,22.97
2022-11-18T04:17:34.416Z,25.00
2022-11-18T04:20:03.616Z,25.17
2022-11-18T04:22:32.836Z,23.83
2022-11-18T04:25:01.982Z,24.40
2022-11-18T04:27:31.115Z,22.43
2022-11-18T04:30:00.093Z,20.50
2022-11-18T04:32:29.123Z,22.17
2022-11-18T04:35:00.892Z,23.90
2022-11-18T04:37:30.455Z,28.13
2022-11-18T04:39:59.887Z,24.50
2022-11-18T04:42:29.451Z,25.77
2022-11-18T04:44:59.235Z,25.23
2022-11-18T04:47:28.135Z,22.60
2022-11-18T04:49:57.431Z,28.17
2022-11-18T04:52:28.319Z,24.33
2022-11-18T04:54:57.639Z,25.70
2022-11-18T04:57:26.900Z,25.83
2022-11-18T04:59:56.293Z,25.97
2022-11-18T05:02:25.789Z,28.80
2022-11-18T05:04:54.907Z,32.40
2022-11-18T05:07:26.434Z,26.20
2022-11-18T05:09:56.964Z,27.03
2022-11-18T05:12:43.165Z,32.77
2022-11-18T05:15:12.540Z,28.73
2022-11-18T05:17:41.436Z,25.93
2022-11-18T05:20:11.640Z,22.97
2022-11-18T05:22:40.897Z,29.07
2022-11-18T05:25:12.908Z,23.70
2022-11-18T05:27:42.595Z,27.33
2022-11-18T05:30:12.975Z,22.47
2022-11-18T05:32:42.399Z,26.97
2022-11-18T05:35:11.999Z,21.37
2022-11-18T05:37:41.069Z,23.60
2022-11-18T05:40:14.119Z,28.20
2022-11-18T05:43:00.406Z,26.23
2022-11-18T05:45:29.736Z,23.03
2022-11-18T05:48:05.186Z,28.43
2022-11-18T05:50:36.256Z,27.40
2022-11-18T05:53:06.437Z,25.90
2022-11-18T05:55:42.473Z,29.63
2022-11-18T05:58:12.375Z,25.50
2022-11-18T06:01:01.450Z,26.93
2022-11-18T06:03:34.879Z,23.50
2022-11-18T06:06:06.269Z,28.70
2022-11-18T06:08:39.607Z,24.73
2022-11-18T06:11:13.613Z,25.27
2022-11-18T06:13:50.779Z,26.43
2022-11-18T06:16:23.074Z,21.87
2022-11-18T06:18:52.649Z,24.63
2022-11-18T06:21:22.294Z,25.53
2022-11-18T06:23:52.354Z,29.83
2022-11-18T06:26:23.342Z,25.00
2022-11-18T06:28:52.370Z,25.97
2022-11-18T06:31:21.513Z,26.47
2022-11-18T06:33:50.792Z,26.47
2022-11-18T06:36:19.871Z,34.80
2022-11-18T06:38:49.236Z,26.00
2022-11-18T06:41:18.643Z,30.17
2022-11-18T06:43:49.790Z,28.97
2022-11-18T06:46:37.465Z,32.57
2022-11-18T06:49:07.054Z,27.77
2022-11-18T06:51:36.021Z,30.13
2022-11-18T06:54:10.429Z,29.13
2022-11-18T06:56:40.439Z,31.50
2022-11-18T06:59:11.801Z,31.47
2022-11-18T07:01:43.315Z,25.93
2022-11-18T07:04:13.839Z,30.17
2022-11-18T07:06:43.241Z,32.53
2022-11-18T07:09:12.573Z,29.73
2022-11-18T07:11:41.784Z,35.77
2022-11-18T07:14:15.407Z,34.80
2022-11-18T07:16:44.752Z,36.13
2022-11-18T07:19:15.996Z,34.10
2022-11-18T07:21:46.886Z,33.27
2022-11-18T07:24:17.631Z,32.27
2022-11-18T07:26:46.802Z,32.50
2022-11-18T07:29:18.020Z,34.57
2022-11-18T07:31:47.552Z,29.70
2022-11-18T07:34:16.951Z,31.57
2022-11-18T07:36:46.590Z,31.00
2022-11-18T07:39:16.216Z,37.97
2022-11-18T07:41:45.892Z,33.63
2022-11-18T07:44:18.413Z,33.90
2022-11-18T07:46:48.285Z,27.47
2022-11-18T07:49:18.164Z,31.37
2022-11-18T07:51:47.836Z,30.83
2022-11-18T07:54:19.724Z,31.60
2022-11-18T07:56:50.513Z,30.47
2022-11-18T07:59:21.624Z,30.83
2022-11-18T08:01:51.849Z,33.93
2022-11-18T08:04:21.208Z,34.03
2022-11-18T08:06:50.611Z,28.57
2022-11-18T08:09:20.043Z,34.47
2022-11-18T08:11:49.640Z,31.83
2022-11-18T08:14:20.188Z,27.13
2022-11-18T08:16:49.492Z,36.57
2022-11-18T08:19:19.405Z,33.93
2022-11-18T08:21:49.284Z,27.87
2022-11-18T08:24:18.448Z,28.80
2022-11-18T08:26:48.076Z,31.20
2022-11-18T08:29:23.466Z,33.83
2022-11-18T08:31:55.562Z,28.30
2022-11-18T08:34:24.625Z,31.20
2022-11-18T08:36:54.512Z,31.80
2022-11-18T08:39:23.814Z,29.87
2022-11-18T08:41:53.963Z,26.43
2022-11-18T08:44:23.836Z,32.20
2022-11-18T08:46:53.537Z,32.83
2022-11-18T08:49:32.162Z,30.30
2022-11-18T08:52:02.168Z,34.10
2022-11-18T08:54:31.974Z,30.47
2022-11-18T08:57:01.086Z,30.27
2022-11-18T08:59:31.255Z,29.67
2022-11-18T09:02:01.710Z,29.43
2022-11-18T09:04:32.956Z,33.63
2022-11-18T09:07:03.396Z,28.90
2022-11-18T09:09:33.509Z,32.27
2022-11-18T09:12:02.860Z,33.80
2022-11-18T09:15:12.415Z,31.90
2022-11-18T09:17:21.818Z,30.03
2022-11-18T09:19:52.713Z,31.80
2022-11-18T09:22:22.137Z,26.70
2022-11-18T09:24:51.567Z,28.97
2022-11-18T09:27:21.014Z,25.83
2022-11-18T09:29:50.788Z,27.43
2022-11-18T09:32:20.331Z,25.00
2022-11-18T09:34:49.648Z,27.47
2022-11-18T09:37:21.034Z,23.17
2022-11-18T09:39:54.267Z,26.03
2022-11-18T09:42:40.811Z,26.03
2022-11-18T09:45:25.496Z,25.07
2022-11-18T09:48:00.976Z,29.67
2022-11-18T09:50:49.160Z,27.37
2022-11-18T09:53:25.408Z,32.93
2022-11-18T09:55:55.952Z,26.77
2022-11-18T09:58:34.834Z,26.40
2022-11-18T10:01:05.869Z,25.27
2022-11-18T10:03:37.965Z,25.23
2022-11-18T10:06:23.286Z,25.83
2022-11-18T10:09:07.349Z,24.47
2022-11-18T10:11:45.164Z,24.40
2022-11-18T10:14:29.871Z,24.73
2022-11-18T10:17:09.727Z,27.13
2022-11-18T10:19:44.890Z,30.63
2022-11-18T10:22:24.760Z,28.50
2022-11-18T10:24:57.948Z,24.33
2022-11-18T10:27:36.292Z,25.73
2022-11-18T10:30:14.608Z,25.23
2022-11-18T10:33:06.715Z,22.87
2022-11-18T10:35:39.628Z,22.30
2022-11-18T10:38:18.321Z,28.50
2022-11-18T10:40:59.946Z,27.87
2022-11-18T10:43:52.726Z,29.23
2022-11-18T10:46:27.771Z,31.97
2022-11-18T10:49:17.922Z,29.83
2022-11-18T10:51:49.520Z,27.07
2022-11-18T10:54:21.156Z,29.27
2022-11-18T10:56:58.027Z,32.33
2022-11-18T10:59:32.778Z,25.77
2022-11-18T11:02:09.620Z,30.97
2022-11-18T11:04:41.260Z,27.10
2022-11-18T11:07:28.536Z,26.70
2022-11-18T11:10:24.073Z,29.27
2022-11-18T11:13:00.395Z,29.10
2022-11-18T11:15:36.959Z,25.77
2022-11-18T11:18:29.544Z,29.87
2022-11-18T11:20:58.679Z,34.50
2022-11-18T11:23:27.475Z,31.00
2022-11-18T11:29:04.164Z,28.50
2022-11-18T11:31:45.260Z,32.20
2022-11-18T11:34:21.927Z,29.13
2022-11-18T11:36:56.688Z,28.97
2022-11-18T11:39:51.152Z,33.07
2022-11-18T11:42:34.039Z,34.37
2022-11-18T11:45:20.316Z,34.53
2022-11-18T11:48:05.231Z,30.23
2022-11-18T11:51:03.066Z,28.70
2022-11-18T11:54:11.569Z,30.77
2022-11-18T11:56:46.255Z,35.33
2022-11-18T11:59:31.680Z,36.00
2022-11-18T12:02:30.884Z,41.00
2022-11-18T12:05:05.089Z,30.77
2022-11-18T12:07:44.694Z,37.97
2022-11-18T12:10:30.259Z,35.77
2022-11-18T12:13:17.050Z,38.50
2022-11-18T12:16:00.699Z,37.00
2022-11-18T12:18:37.703Z,43.40
2022-11-18T12:21:07.191Z,35.67
2022-11-18T12:23:36.521Z,38.90
2022-11-18T12:26:08.573Z,37.97
2022-11-18T12:28:41.586Z,36.13
2022-11-18T12:32:08.897Z,38.50
2022-11-18T12:34:48.706Z,33.63
2022-11-18T12:37:45.766Z,36.10
2022-11-18T12:40:38.457Z,37.90
2022-11-18T12:43:25.870Z,34.13
2022-11-18T12:45:57.579Z,32.27
2022-11-18T12:48:39.520Z,28.47
2022-11-18T12:51:50.709Z,28.40
2022-11-18T12:54:31.190Z,24.30
2022-11-18T12:57:05.713Z,24.17
2022-11-18T12:59:40.286Z,30.90
2022-11-18T13:02:25.355Z,28.30
2022-11-18T13:05:09.371Z,28.57
2022-11-18T13:08:02.157Z,26.40
2022-11-18T13:10:34.917Z,22.33
2022-11-18T13:13:04.905Z,22.63
2022-11-18T13:16:07.937Z,24.40
2022-11-18T13:18:59.479Z,23.60
2022-11-18T13:21:48.567Z,20.10
2022-11-18T13:24:21.280Z,20.17
2022-11-18T13:26:59.860Z,20.10
2022-11-18T13:29:52.662Z,20.53
2022-11-18T13:32:27.517Z,13.97
2022-11-18T13:34:59.174Z,15.97
2022-11-18T13:37:30.050Z,13.37
2022-11-18T13:40:01.554Z,14.87
2022-11-18T13:42:36.851Z,16.17
2022-11-18T13:45:07.997Z,11.73
2022-11-18T13:47:41.524Z,13.97
2022-11-18T13:50:24.178Z,16.67
2022-11-18T13:53:02.389Z,12.23
2022-11-18T13:55:35.798Z,9.77
2022-11-18T13:58:08.461Z,12.23
2022-11-18T14:00:38.626Z,12.90
2022-11-18T14:03:16.933Z,10.83
2022-11-18T14:05:55.467Z,10.80
2022-11-18T14:08:29.127Z,10.53
2022-11-18T14:11:01.195Z,10.97
2022-11-18T14:13:33.441Z,12.80
2022-11-18T14:16:04.701Z,9.40
2022-11-18T14:18:36.479Z,8.33
2022-11-18T14:21:07.697Z,7.77
2022-11-18T14:23:38.233Z,8.20
2022-11-18T14:26:08.842Z,7.80
2022-11-18T14:28:41.057Z,11.77
2022-11-18T14:31:25.905Z,7.30
2022-11-18T14:34:22.477Z,6.30
2022-11-18T14:36:55.678Z,11.70
2022-11-18T14:39:29.873Z,8.77
2022-11-18T14:41:59.613Z,8.10
2022-11-18T14:44:31.294Z,9.00
2022-11-18T14:47:04.061Z,8.97
2022-11-18T14:49:34.433Z,7.87
2022-11-18T14:52:08.002Z,6.77
2022-11-18T14:54:37.904Z,7.70
2022-11-18T14:57:08.396Z,8.93
2022-11-18T14:59:39.402Z,9.80
2022-11-18T15:02:15.408Z,9.67
2022-11-18T15:04:44.876Z,9.93
2022-11-18T15:07:22.712Z,9.57
2022-11-18T15:09:53.087Z,10.13
2022-11-18T15:12:22.057Z,12.70
2022-11-18T15:14:52.891Z,12.83
2022-11-18T15:17:22.245Z,9.60
2022-11-18T15:19:51.877Z,12.27
2022-11-18T15:22:22.809Z,13.53
2022-11-18T15:24:52.198Z,15.40
2022-11-18T15:27:21.664Z,21.50
2022-11-18T15:29:54.345Z,24.80
2022-11-18T15:32:25.174Z,22.10
2022-11-18T15:34:55.104Z,28.63
2022-11-18T15:37:25.168Z,26.97
2022-11-18T15:39:55.801Z,22.57
2022-11-18T15:42:25.483Z,20.40
2022-11-18T15:44:57.176Z,20.57
2022-11-18T15:47:26.901Z,12.07
2022-11-18T15:49:56.292Z,14.73
2022-11-18T15:52:26.579Z,13.87
2022-11-18T15:54:55.943Z,16.40
2022-11-18T15:57:25.196Z,16.03
2022-11-18T15:59:54.548Z,17.30
2022-11-18T16:02:27.058Z,18.23
2022-11-18T16:04:57.687Z,17.47
2022-11-18T16:07:27.108Z,26.60
2022-11-18T16:10:13.989Z,14.53
2022-11-18T16:12:49.902Z,16.67
2022-11-18T16:15:37.307Z,19.10
2022-11-18T16:18:09.791Z,23.17
2022-11-18T16:20:40.437Z,25.40
2022-11-18T16:23:10.314Z,24.10
2022-11-18T16:25:47.081Z,22.40
2022-11-18T16:28:17.679Z,19.03
2022-11-18T16:31:10.001Z,26.13
2022-11-18T16:33:42.290Z,18.40
2022-11-18T16:36:12.439Z,32.43
2022-11-18T16:38:42.486Z,40.70
2022-11-18T16:41:26.598Z,57.30
2022-11-18T16:43:59.034Z,51.43
2022-11-18T16:46:31.512Z,42.80
2022-11-18T16:49:06.507Z,37.60
2022-11-18T16:51:37.653Z,37.13
2022-11-18T16:54:10.360Z,39.00
2022-11-18T16:56:43.013Z,36.00
2022-11-18T16:59:19.104Z,45.83
2022-11-18T17:01:50.418Z,42.80
2022-11-18T17:04:23.626Z,67.93
2022-11-18T17:06:54.297Z,67.03
2022-11-18T17:09:25.776Z,71.90
2022-11-18T17:11:56.701Z,74.00
2022-11-18T17:14:26.719Z,70.37
2022-11-18T17:16:56.319Z,62.20
2022-11-18T17:19:30.974Z,86.07
2022-11-18T17:22:02.000Z,54.83
2022-11-18T17:24:31.970Z,57.63
2022-11-18T17:27:01.069Z,58.30
2022-11-18T17:29:30.636Z,52.27
2022-11-18T17:32:00.674Z,64.13
2022-11-18T17:34:32.421Z,50.13
2022-11-18T17:37:06.514Z,54.33
2022-11-18T17:39:37.012Z,72.00
2022-11-18T17:42:23.827Z,81.13
2022-11-18T17:44:53.645Z,77.07
2022-11-18T17:47:23.499Z,55.50
2022-11-18T17:52:47.150Z,53.07
2022-11-18T17:55:20.877Z,55.83
2022-11-18T17:57:50.548Z,37.00
2022-11-18T18:00:21.608Z,41.07
2022-11-18T18:02:54.969Z,35.17
2022-11-18T18:05:27.135Z,31.00
2022-11-18T18:07:58.853Z,27.27
2022-11-18T18:10:28.762Z,38.80
2022-11-18T18:13:15.525Z,36.40
2022-11-18T18:15:44.799Z,32.63
2022-11-18T18:18:14.297Z,43.13
2022-11-18T18:20:45.880Z,38.90
2022-11-18T18:23:15.076Z,44.43
2022-11-18T18:25:44.616Z,41.70
2022-11-18T18:28:14.291Z,48.67
2022-11-18T18:30:44.085Z,47.43
2022-11-18T18:33:14.076Z,47.47
2022-11-18T18:35:46.156Z,40.77
2022-11-18T18:38:15.541Z,35.37
2022-11-18T18:40:45.146Z,29.60
2022-11-18T18:43:17.822Z,34.97
2022-11-18T18:46:04.026Z,35.97
2022-11-18T18:48:34.347Z,33.33
2022-11-18T18:51:07.840Z,45.93
2022-11-18T18:53:37.496Z,32.20
2022-11-18T18:56:08.343Z,30.03
2022-11-18T18:58:38.391Z,33.63
2022-11-18T19:01:09.661Z,34.23
2022-11-18T19:03:39.348Z,33.53
2022-11-18T19:09:21.704Z,37.53
2022-11-18T19:12:08.663Z,43.43
2022-11-18T19:14:39.961Z,46.17
2022-11-18T19:17:12.161Z,53.27
2022-11-18T19:20:01.044Z,49.27
2022-11-18T19:22:35.241Z,52.73
2022-11-18T19:25:06.025Z,59.47
2022-11-18T19:27:39.221Z,42.37
2022-11-18T19:30:10.783Z,43.53
2022-11-18T19:32:42.230Z,41.33
2022-11-18T19:35:12.720Z,39.57
2022-11-18T19:37:44.462Z,32.90
2022-11-18T19:40:14.833Z,28.47
2022-11-18T19:42:44.645Z,25.83
2022-11-18T19:45:14.397Z,29.00
2022-11-18T19:47:43.968Z,26.73
2022-11-18T19:50:13.616Z,24.50
2022-11-18T19:52:45.412Z,29.13
2022-11-18T19:55:14.926Z,22.70
2022-11-18T19:57:44.151Z,27.93
2022-11-18T20:00:14.776Z,32.70
2022-11-18T20:02:44.988Z,24.10
2022-11-18T20:05:31.859Z,28.20
2022-11-18T20:08:02.848Z,29.37
2022-11-18T20:10:32.195Z,26.13
2022-11-18T20:13:01.749Z,29.17
2022-11-18T20:15:31.248Z,27.83
2022-11-18T20:18:01.873Z,29.67
2022-11-18T20:20:33.203Z,28.13
2022-11-18T20:23:04.428Z,29.30
2022-11-18T20:25:33.809Z,22.27
2022-11-18T20:28:02.840Z,26.40
2022-11-18T20:30:32.839Z,27.13
2022-11-18T20:33:04.076Z,25.00
2022-11-18T20:35:36.551Z,30.50
2022-11-18T20:38:08.112Z,27.83
2022-11-18T20:40:38.307Z,26.97
2022-11-18T20:43:14.786Z,27.83
2022-11-18T20:45:45.926Z,28.10
2022-11-18T20:48:16.283Z,29.60
2022-11-18T20:50:46.839Z,28.47
2022-11-18T20:53:19.792Z,27.30
2022-11-18T20:55:52.040Z,56.93
2022-11-18T20:58:22.373Z,51.30
2022-11-18T21:00:52.674Z,31.27
2022-11-18T21:03:23.392Z,22.67
2022-11-18T21:05:55.132Z,25.60
2022-11-18T21:08:26.646Z,25.53
2022-11-18T21:10:57.364Z,24.87
2022-11-18T21:13:45.530Z,20.93
2022-11-18T21:16:15.243Z,19.40
2022-11-18T21:18:45.382Z,18.47
2022-11-18T21:21:32.262Z,14.53
2022-11-18T21:24:07.101Z,14.97
2022-11-18T21:26:37.913Z,16.60
2022-11-18T21:29:09.409Z,18.13
2022-11-18T21:31:39.734Z,15.30
2022-11-18T21:34:09.842Z,16.83
2022-11-18T21:36:45.034Z,13.63
2022-11-18T21:39:18.486Z,15.57
2022-11-18T21:41:53.685Z,17.37
2022-11-18T21:44:25.471Z,17.10
2022-11-18T21:46:54.424Z,15.63
2022-11-18T21:49:24.151Z,11.97
2022-11-18T21:51:53.811Z,12.77
2022-11-18T21:54:25.423Z,12.60
2022-11-18T21:56:55.469Z,15.03
2022-11-18T21:59:25.043Z,15.43
2022-11-18T22:01:54.884Z,12.80
2022-11-18T22:04:41.320Z,11.97
2022-11-18T22:07:11.162Z,14.53
2022-11-18T22:09:43.186Z,12.97
2022-11-18T22:12:12.973Z,16.90
2022-11-18T22:14:43.124Z,11.70
2022-11-18T22:17:15.428Z,12.97
2022-11-18T22:19:44.864Z,14.73
2022-11-18T22:22:14.742Z,15.80
2022-11-18T22:24:47.464Z,15.30
2022-11-18T22:27:17.641Z,17.13
2022-11-18T22:29:47.024Z,17.80
2022-11-18T22:32:16.007Z,14.87
2022-11-18T22:34:50.584Z,14.27
2022-11-18T22:37:21.361Z,18.87
2022-11-18T22:39:52.958Z,14.37
2022-11-18T22:42:39.071Z,16.43
2022-11-18T22:45:09.894Z,17.03
2022-11-18T22:47:39.765Z,18.93
2022-11-18T22:50:09.630Z,22.10
2022-11-18T22:52:39.256Z,17.90
2022-11-18T22:55:10.776Z,18.90
2022-11-18T22:57:39.931Z,16.27
2022-11-18T23:00:11.316Z,18.47
2022-11-18T23:02:40.947Z,14.30
2022-11-18T23:05:11.238Z,17.30
2022-11-18T23:07:45.803Z,20.00
2022-11-18T23:10:17.414Z,16.57
2022-11-18T23:13:04.295Z,23.83
2022-11-18T23:15:35.403Z,19.83
2022-11-18T23:18:08.781Z,19.60
2022-11-18T23:20:40.701Z,19.00
2022-11-18T23:23:09.791Z,20.90
2022-11-18T23:25:40.007Z,19.43
2022-11-18T23:28:11.839Z,22.70
2022-11-18T23:30:47.282Z,20.23
2022-11-18T23:33:16.447Z,18.83
2022-11-18T23:35:45.459Z,20.40
2022-11-18T23:38:14.846Z,21.43
2022-11-18T23:40:45.338Z,21.83
2022-11-18T23:43:14.810Z,24.70
2022-11-18T23:45:46.419Z,21.40
2022-11-18T23:48:15.680Z,24.03
2022-11-18T23:50:45.011Z,18.57
2022-11-18T23:53:16.690Z,25.17
2022-11-18T23:55:48.175Z,22.37
2022-11-18T23:58:19.039Z,21.90
